sensor_id;sensor_type;location;lat;lon;timestamp;pressure;altitude;pressure_sealevel;temperature;humidity
46598;BME280;32318;48.858;8.252;2023-06-14T00:05:05;99715.81;;;17.64;44.89
46598;BME280;32318;48.858;8.252;2023-06-14T00:13:05;99717.22;;;17.48;45.04
46598;BME280;32318;48.858;8.252;2023-06-14T00:21:07;99707.59;;;17.52;44.90
46598;BME280;32318;48.858;8.252;2023-06-14T00:29:07;99710.59;;;17.44;45.37
46598;BME280;32318;48.858;8.252;2023-06-14T00:37:07;99699.72;;;17.32;45.52
46598;BME280;32318;48.858;8.252;2023-06-14T00:45:08;99695.59;;;17.29;45.49
46598;BME280;32318;48.858;8.252;2023-06-14T00:53:09;99702.03;;;17.28;45.78
46598;BME280;32318;48.858;8.252;2023-06-14T01:01:10;99702.81;;;17.10;46.84
46598;BME280;32318;48.858;8.252;2023-06-14T01:17:51;99712.50;;;16.86;48.41
46598;BME280;32318;48.858;8.252;2023-06-14T01:25:53;99714.06;;;16.68;47.86
46598;BME280;32318;48.858;8.252;2023-06-14T01:33:55;99706.09;;;16.55;48.39
46598;BME280;32318;48.858;8.252;2023-06-14T01:41:55;99708.41;;;16.51;48.12
46598;BME280;32318;48.858;8.252;2023-06-14T01:49:57;99715.34;;;16.27;50.27
46598;BME280;32318;48.858;8.252;2023-06-14T01:57:57;99719.09;;;16.19;48.86
46598;BME280;32318;48.858;8.252;2023-06-14T02:05:58;99717.59;;;16.30;48.76
46598;BME280;32318;48.858;8.252;2023-06-14T02:13:59;99725.72;;;16.23;48.83
46598;BME280;32318;48.858;8.252;2023-06-14T02:22:00;99720.00;;;16.06;49.32
46598;BME280;32318;48.858;8.252;2023-06-14T02:30:00;99723.53;;;16.00;49.91
46598;BME280;32318;48.858;8.252;2023-06-14T02:38:00;99720.91;;;15.87;50.16
46598;BME280;32318;48.858;8.252;2023-06-14T02:46:01;99727.94;;;15.61;50.72
46598;BME280;32318;48.858;8.252;2023-06-14T02:54:01;99737.31;;;15.51;50.70
46598;BME280;32318;48.858;8.252;2023-06-14T03:02:01;99735.22;;;15.53;51.01
46598;BME280;32318;48.858;8.252;2023-06-14T03:10:03;99739.09;;;15.71;50.37
46598;BME280;32318;48.858;8.252;2023-06-14T03:18:04;99745.91;;;15.80;50.36
46598;BME280;32318;48.858;8.252;2023-06-14T03:26:04;99744.91;;;15.75;50.90
46598;BME280;32318;48.858;8.252;2023-06-14T03:34:05;99763.56;;;15.43;51.16
46598;BME280;32318;48.858;8.252;2023-06-14T03:42:05;99771.44;;;15.31;51.68
46598;BME280;32318;48.858;8.252;2023-06-14T03:50:06;99782.41;;;15.56;50.98
46598;BME280;32318;48.858;8.252;2023-06-14T03:58:07;99790.03;;;15.79;50.54
46598;BME280;32318;48.858;8.252;2023-06-14T04:06:07;99789.63;;;15.82;50.95
46598;BME280;32318;48.858;8.252;2023-06-14T04:14:07;99807.84;;;15.94;50.46
46598;BME280;32318;48.858;8.252;2023-06-14T04:22:08;99814.28;;;15.99;50.72
46598;BME280;32318;48.858;8.252;2023-06-14T04:30:10;99825.22;;;16.05;50.43
46598;BME280;32318;48.858;8.252;2023-06-14T04:38:11;99831.81;;;16.09;50.16
46598;BME280;32318;48.858;8.252;2023-06-14T04:46:11;99829.16;;;16.02;50.15
46598;BME280;32318;48.858;8.252;2023-06-14T04:54:14;99846.13;;;16.16;50.17
46598;BME280;32318;48.858;8.252;2023-06-14T05:02:15;99845.88;;;16.31;49.74
46598;BME280;32318;48.858;8.252;2023-06-14T05:10:15;99848.31;;;16.46;49.80
46598;BME280;32318;48.858;8.252;2023-06-14T05:18:15;99856.00;;;16.42;50.95
46598;BME280;32318;48.858;8.252;2023-06-14T05:26:16;99857.06;;;16.87;50.48
46598;BME280;32318;48.858;8.252;2023-06-14T05:34:16;99860.59;;;17.26;49.33
46598;BME280;32318;48.858;8.252;2023-06-14T05:42:17;99864.09;;;17.59;49.02
46598;BME280;32318;48.858;8.252;2023-06-14T05:50:17;99872.97;;;17.98;48.22
46598;BME280;32318;48.858;8.252;2023-06-14T05:58:17;99885.81;;;18.40;46.26
46598;BME280;32318;48.858;8.252;2023-06-14T06:06:18;99875.31;;;18.69;45.56
46598;BME280;32318;48.858;8.252;2023-06-14T06:14:19;99880.47;;;18.89;45.12
46598;BME280;32318;48.858;8.252;2023-06-14T06:22:19;99891.41;;;19.12;44.95
46598;BME280;32318;48.858;8.252;2023-06-14T06:30:20;99887.16;;;19.35;44.55
46598;BME280;32318;48.858;8.252;2023-06-14T06:38:20;99898.81;;;19.48;44.21
46598;BME280;32318;48.858;8.252;2023-06-14T06:46:20;99900.91;;;19.76;43.70
46598;BME280;32318;48.858;8.252;2023-06-14T06:54:21;99915.56;;;19.99;43.38
46598;BME280;32318;48.858;8.252;2023-06-14T07:02:21;99918.75;;;20.19;42.42
46598;BME280;32318;48.858;8.252;2023-06-14T07:10:21;99919.88;;;20.47;42.88
46598;BME280;32318;48.858;8.252;2023-06-14T07:18:22;99931.78;;;20.70;41.80
46598;BME280;32318;48.858;8.252;2023-06-14T07:26:22;99940.06;;;20.75;41.39
46598;BME280;32318;48.858;8.252;2023-06-14T07:34:23;99939.81;;;20.89;42.01
46598;BME280;32318;48.858;8.252;2023-06-14T07:42:23;99948.13;;;20.99;42.00
46598;BME280;32318;48.858;8.252;2023-06-14T07:50:23;99948.88;;;21.23;41.75
46598;BME280;32318;48.858;8.252;2023-06-14T07:58:24;99950.47;;;21.36;41.88
46598;BME280;32318;48.858;8.252;2023-06-14T08:06:24;99939.72;;;21.41;41.28
46598;BME280;32318;48.858;8.252;2023-06-14T08:14:25;99957.09;;;21.57;41.47
46598;BME280;32318;48.858;8.252;2023-06-14T08:22:25;99967.53;;;21.77;41.56
46598;BME280;32318;48.858;8.252;2023-06-14T08:30:28;99974.88;;;21.94;40.71
46598;BME280;32318;48.858;8.252;2023-06-14T08:38:28;99958.00;;;22.26;40.68
46598;BME280;32318;48.858;8.252;2023-06-14T08:46:32;99961.09;;;22.35;39.99
46598;BME280;32318;48.858;8.252;2023-06-14T08:54:33;99971.31;;;22.62;39.86
46598;BME280;32318;48.858;8.252;2023-06-14T09:02:36;99961.22;;;22.79;38.46
46598;BME280;32318;48.858;8.252;2023-06-14T09:10:36;99972.06;;;22.96;38.32
46598;BME280;32318;48.858;8.252;2023-06-14T09:18:39;99958.13;;;23.15;37.94
46598;BME280;32318;48.858;8.252;2023-06-14T09:26:39;99968.91;;;23.54;37.24
46598;BME280;32318;48.858;8.252;2023-06-14T09:34:40;99983.97;;;23.62;36.09
46598;BME280;32318;48.858;8.252;2023-06-14T09:42:40;99985.34;;;23.64;36.41
46598;BME280;32318;48.858;8.252;2023-06-14T09:50:41;99997.16;;;23.75;35.36
46598;BME280;32318;48.858;8.252;2023-06-14T09:58:42;100000.47;;;24.05;35.27
46598;BME280;32318;48.858;8.252;2023-06-14T10:06:45;99993.75;;;24.18;34.57
46598;BME280;32318;48.858;8.252;2023-06-14T10:14:48;99973.09;;;24.32;34.52
46598;BME280;32318;48.858;8.252;2023-06-14T10:22:51;99974.56;;;24.45;33.32
46598;BME280;32318;48.858;8.252;2023-06-14T10:31:09;99980.47;;;24.69;32.81
46598;BME280;32318;48.858;8.252;2023-06-14T10:39:17;99975.84;;;24.70;30.90
46598;BME280;32318;48.858;8.252;2023-06-14T10:47:31;99982.56;;;25.05;31.54
46598;BME280;32318;48.858;8.252;2023-06-14T10:55:35;99979.22;;;24.93;31.84
46598;BME280;32318;48.858;8.252;2023-06-14T11:03:51;99972.63;;;24.88;31.51
46598;BME280;32318;48.858;8.252;2023-06-14T11:11:56;99959.06;;;25.04;31.14
46598;BME280;32318;48.858;8.252;2023-06-14T11:20:10;99973.41;;;25.52;29.63
46598;BME280;32318;48.858;8.252;2023-06-14T11:28:11;99971.22;;;25.39;29.26
46598;BME280;32318;48.858;8.252;2023-06-14T11:36:11;99973.16;;;25.80;28.51
46598;BME280;32318;48.858;8.252;2023-06-14T11:44:12;99965.22;;;25.68;29.17
46598;BME280;32318;48.858;8.252;2023-06-14T11:52:13;99957.59;;;25.70;29.17
46598;BME280;32318;48.858;8.252;2023-06-14T12:00:14;99950.47;;;25.84;29.04
46598;BME280;32318;48.858;8.252;2023-06-14T12:08:15;99943.38;;;25.83;29.54
46598;BME280;32318;48.858;8.252;2023-06-14T12:16:17;99953.50;;;26.19;28.14
46598;BME280;32318;48.858;8.252;2023-06-14T12:24:17;99951.31;;;26.11;29.65
46598;BME280;32318;48.858;8.252;2023-06-14T12:32:18;99943.94;;;26.17;30.19
46598;BME280;32318;48.858;8.252;2023-06-14T12:40:18;99937.59;;;26.47;29.32
46598;BME280;32318;48.858;8.252;2023-06-14T12:48:19;99936.22;;;26.44;29.33
46598;BME280;32318;48.858;8.252;2023-06-14T12:56:19;99942.16;;;26.67;28.10
46598;BME280;32318;48.858;8.252;2023-06-14T13:04:20;99938.88;;;26.70;29.29
46598;BME280;32318;48.858;8.252;2023-06-14T13:12:20;99955.09;;;26.46;29.47
46598;BME280;32318;48.858;8.252;2023-06-14T13:20:20;99949.06;;;26.44;29.42
46598;BME280;32318;48.858;8.252;2023-06-14T13:28:21;99952.97;;;26.22;29.79
46598;BME280;32318;48.858;8.252;2023-06-14T13:36:21;99943.56;;;26.49;29.08
46598;BME280;32318;48.858;8.252;2023-06-14T13:44:22;99935.59;;;26.63;28.60
46598;BME280;32318;48.858;8.252;2023-06-14T13:52:22;99944.34;;;26.70;28.70
46598;BME280;32318;48.858;8.252;2023-06-14T14:00:23;99939.91;;;26.95;28.71
46598;BME280;32318;48.858;8.252;2023-06-14T14:08:23;99936.13;;;26.81;28.67
46598;BME280;32318;48.858;8.252;2023-06-14T14:16:24;99934.94;;;26.97;28.22
46598;BME280;32318;48.858;8.252;2023-06-14T14:24:25;99934.41;;;26.95;28.92
46598;BME280;32318;48.858;8.252;2023-06-14T14:32:25;99948.72;;;26.87;28.47
46598;BME280;32318;48.858;8.252;2023-06-14T14:40:25;99941.38;;;26.61;28.71
46598;BME280;32318;48.858;8.252;2023-06-14T14:48:26;99946.03;;;26.61;28.36
46598;BME280;32318;48.858;8.252;2023-06-14T14:56:26;99927.38;;;26.68;27.38
46598;BME280;32318;48.858;8.252;2023-06-14T15:04:27;99922.72;;;26.69;27.34
46598;BME280;32318;48.858;8.252;2023-06-14T15:12:27;99925.22;;;26.60;27.63
46598;BME280;32318;48.858;8.252;2023-06-14T15:20:28;99923.91;;;26.47;28.04
46598;BME280;32318;48.858;8.252;2023-06-14T15:28:28;99927.44;;;26.53;27.81
46598;BME280;32318;48.858;8.252;2023-06-14T15:36:29;99928.00;;;26.39;27.30
46598;BME280;32318;48.858;8.252;2023-06-14T15:44:29;99927.47;;;26.42;27.69
46598;BME280;32318;48.858;8.252;2023-06-14T15:52:29;99922.00;;;26.32;27.47
46598;BME280;32318;48.858;8.252;2023-06-14T16:00:30;99925.31;;;26.13;28.05
46598;BME280;32318;48.858;8.252;2023-06-14T16:08:30;99915.75;;;26.00;27.96
46598;BME280;32318;48.858;8.252;2023-06-14T16:16:30;99917.09;;;26.03;27.76
46598;BME280;32318;48.858;8.252;2023-06-14T16:24:31;99916.00;;;26.04;27.77
46598;BME280;32318;48.858;8.252;2023-06-14T16:32:32;99924.22;;;25.89;27.81
46598;BME280;32318;48.858;8.252;2023-06-14T16:40:32;99925.31;;;25.77;28.34
46598;BME280;32318;48.858;8.252;2023-06-14T16:48:33;99937.06;;;25.73;28.12
46598;BME280;32318;48.858;8.252;2023-06-14T16:56:33;99935.44;;;25.51;28.41
46598;BME280;32318;48.858;8.252;2023-06-14T17:04:33;99942.81;;;25.40;28.48
46598;BME280;32318;48.858;8.252;2023-06-14T17:12:34;99949.03;;;25.35;28.67
46598;BME280;32318;48.858;8.252;2023-06-14T17:20:35;99955.28;;;25.20;28.66
46598;BME280;32318;48.858;8.252;2023-06-14T17:28:35;99963.75;;;25.24;28.78
46598;BME280;32318;48.858;8.252;2023-06-14T17:36:36;99963.97;;;25.07;29.44
46598;BME280;32318;48.858;8.252;2023-06-14T17:44:36;99977.53;;;24.81;30.55
46598;BME280;32318;48.858;8.252;2023-06-14T17:52:36;99983.25;;;24.74;29.74
46598;BME280;32318;48.858;8.252;2023-06-14T18:00:36;99986.44;;;24.66;29.67
46598;BME280;32318;48.858;8.252;2023-06-14T18:08:37;99989.59;;;24.48;30.73
46598;BME280;32318;48.858;8.252;2023-06-14T18:16:37;99990.41;;;24.48;31.00
46598;BME280;32318;48.858;8.252;2023-06-14T18:24:40;100001.16;;;24.22;31.44
46598;BME280;32318;48.858;8.252;2023-06-14T18:32:40;100009.25;;;24.12;32.02
46598;BME280;32318;48.858;8.252;2023-06-14T18:40:41;100019.09;;;23.86;32.54
46598;BME280;32318;48.858;8.252;2023-06-14T18:48:41;100021.88;;;23.63;33.46
46598;BME280;32318;48.858;8.252;2023-06-14T18:56:43;100020.56;;;23.44;33.94
46598;BME280;32318;48.858;8.252;2023-06-14T19:04:43;100031.63;;;23.37;33.89
46598;BME280;32318;48.858;8.252;2023-06-14T19:12:44;100035.19;;;23.15;34.46
46598;BME280;32318;48.858;8.252;2023-06-14T19:20:44;100047.25;;;23.02;35.06
46598;BME280;32318;48.858;8.252;2023-06-14T19:28:44;100048.31;;;22.79;35.50
46598;BME280;32318;48.858;8.252;2023-06-14T19:36:44;100053.19;;;22.60;35.97
46598;BME280;32318;48.858;8.252;2023-06-14T19:44:45;100063.53;;;22.41;36.55
46598;BME280;32318;48.858;8.252;2023-06-14T19:52:53;100080.97;;;22.28;37.22
46598;BME280;32318;48.858;8.252;2023-06-14T20:00:54;100085.44;;;22.05;37.68
46598;BME280;32318;48.858;8.252;2023-06-14T20:08:54;100089.81;;;21.77;38.59
46598;BME280;32318;48.858;8.252;2023-06-14T20:16:55;100101.06;;;21.69;39.03
46598;BME280;32318;48.858;8.252;2023-06-14T20:24:56;100104.88;;;21.44;39.73
46598;BME280;32318;48.858;8.252;2023-06-14T20:32:56;100103.97;;;21.27;40.09
46598;BME280;32318;48.858;8.252;2023-06-14T20:40:56;100107.56;;;21.15;40.30
46598;BME280;32318;48.858;8.252;2023-06-14T20:48:59;100110.50;;;21.02;41.01
46598;BME280;32318;48.858;8.252;2023-06-14T20:56:59;100108.84;;;20.89;41.44
46598;BME280;32318;48.858;8.252;2023-06-14T21:05:00;100115.94;;;20.78;41.54
46598;BME280;32318;48.858;8.252;2023-06-14T21:13:00;100112.34;;;20.66;42.07
46598;BME280;32318;48.858;8.252;2023-06-14T21:21:01;100111.03;;;20.57;42.64
46598;BME280;32318;48.858;8.252;2023-06-14T21:29:01;100103.47;;;20.35;43.04
46598;BME280;32318;48.858;8.252;2023-06-14T21:37:02;100107.56;;;20.26;42.90
46598;BME280;32318;48.858;8.252;2023-06-14T21:45:02;100103.16;;;20.13;43.65
46598;BME280;32318;48.858;8.252;2023-06-14T21:53:09;100118.09;;;20.03;43.73
46598;BME280;32318;48.858;8.252;2023-06-14T22:01:09;100119.22;;;19.96;43.77
46598;BME280;32318;48.858;8.252;2023-06-14T22:09:10;100113.38;;;19.80;44.13
46598;BME280;32318;48.858;8.252;2023-06-14T22:17:13;100126.03;;;19.68;44.17
46598;BME280;32318;48.858;8.252;2023-06-14T22:25:14;100126.41;;;19.53;44.69
46598;BME280;32318;48.858;8.252;2023-06-14T22:33:14;100121.31;;;19.44;44.38
46598;BME280;32318;48.858;8.252;2023-06-14T22:41:16;100121.38;;;19.38;44.48
46598;BME280;32318;48.858;8.252;2023-06-14T22:49:18;100122.78;;;19.22;44.76
46598;BME280;32318;48.858;8.252;2023-06-14T22:57:18;100123.16;;;19.07;45.53
46598;BME280;32318;48.858;8.252;2023-06-14T23:05:20;100132.63;;;18.98;45.64
46598;BME280;32318;48.858;8.252;2023-06-14T23:13:21;100121.81;;;18.91;45.71
46598;BME280;32318;48.858;8.252;2023-06-14T23:21:21;100123.31;;;18.87;46.28
46598;BME280;32318;48.858;8.252;2023-06-14T23:29:21;100125.34;;;18.91;46.31
46598;BME280;32318;48.858;8.252;2023-06-14T23:37:23;100129.22;;;18.77;46.20
46598;BME280;32318;48.858;8.252;2023-06-14T23:45:24;100127.22;;;18.40;47.68
46598;BME280;32318;48.858;8.252;2023-06-14T23:53:24;100134.75;;;18.31;48.10
